sensor_id;sensor_type;location;lat;lon;timestamp;temperature;humidity
67502;SHT30;54349;52.528;19.760;2023-07-28T01:10:44;20.12;55.43
67502;SHT30;54349;52.528;19.760;2023-07-28T01:13:15;20.32;55.20
67502;SHT30;54349;52.528;19.760;2023-07-28T01:18:45;20.81;54.28
67502;SHT30;54349;52.528;19.760;2023-07-28T01:21:31;20.67;53.90
67502;SHT30;54349;52.528;19.760;2023-07-28T05:44:29;20.19;55.89
67502;SHT30;54349;52.528;19.760;2023-07-28T05:46:59;20.42;55.59
67502;SHT30;54349;52.528;19.760;2023-07-28T05:52:32;20.90;54.59
67502;SHT30;54349;52.528;19.760;2023-07-28T05:55:00;20.56;54.70
67502;SHT30;54349;52.528;19.760;2023-07-28T05:57:30;20.08;56.04
67502;SHT30;54349;52.528;19.760;2023-07-28T06:00:00;20.25;55.93
67502;SHT30;54349;52.528;19.760;2023-07-28T07:08:45;20.09;56.83
67502;SHT30;54349;52.528;19.760;2023-07-28T07:11:17;20.33;56.50
67502;SHT30;54349;52.528;19.760;2023-07-28T07:14:16;20.62;55.99
67502;SHT30;54349;52.528;19.760;2023-07-28T07:16:45;20.83;55.46
67502;SHT30;54349;52.528;19.760;2023-07-28T07:19:16;20.48;55.62
67502;SHT30;54349;52.528;19.760;2023-07-28T07:22:02;20.24;56.60
67502;SHT30;54349;52.528;19.760;2023-07-28T07:24:31;20.46;56.32
67502;SHT30;54349;52.528;19.760;2023-07-28T07:27:01;20.70;55.92
67502;SHT30;54349;52.528;19.760;2023-07-28T07:38:24;20.54;56.27
67502;SHT30;54349;52.528;19.760;2023-07-28T07:40:57;20.76;55.90
67502;SHT30;54349;52.528;19.760;2023-07-28T07:43:31;20.73;55.30
67502;SHT30;54349;52.528;19.760;2023-07-28T07:45:59;20.21;56.56
67502;SHT30;54349;52.528;19.760;2023-07-28T07:48:28;20.31;56.73
67502;SHT30;54349;52.528;19.760;2023-07-28T07:50:59;20.56;56.35
67502;SHT30;54349;52.528;19.760;2023-07-28T07:53:32;20.80;55.97
67502;SHT30;54349;52.528;19.760;2023-07-28T09:17:31;18.07;66.80
67502;SHT30;54349;52.528;19.760;2023-07-28T09:20:12;17.97;67.42
67502;SHT30;54349;52.528;19.760;2023-07-28T09:22:47;18.06;69.64
67502;SHT30;54349;52.528;19.760;2023-07-28T09:25:46;18.75;71.32
67502;SHT30;54349;52.528;19.760;2023-07-28T09:28:15;19.39;71.53
67502;SHT30;54349;52.528;19.760;2023-07-28T09:30:52;19.90;71.29
67502;SHT30;54349;52.528;19.760;2023-07-28T09:33:29;20.29;69.77
67502;SHT30;54349;52.528;19.760;2023-07-28T10:32:25;17.80;70.58
67502;SHT30;54349;52.528;19.760;2023-07-28T10:35:01;17.80;69.98
67502;SHT30;54349;52.528;19.760;2023-07-28T10:37:50;18.07;71.54
67502;SHT30;54349;52.528;19.760;2023-07-28T10:43:04;19.28;69.94
67502;SHT30;54349;52.528;19.760;2023-07-28T10:45:36;19.74;68.63
67502;SHT30;54349;52.528;19.760;2023-07-28T13:17:39;19.75;66.19
67502;SHT30;54349;52.528;19.760;2023-07-28T13:20:12;19.54;67.91
67502;SHT30;54349;52.528;19.760;2023-07-28T13:22:40;19.32;67.16
67502;SHT30;54349;52.528;19.760;2023-07-28T13:25:08;19.05;66.14
67502;SHT30;54349;52.528;19.760;2023-07-28T13:27:51;18.77;65.29
67502;SHT30;54349;52.528;19.760;2023-07-28T13:30:20;18.53;64.77
67502;SHT30;54349;52.528;19.760;2023-07-28T13:32:49;18.31;64.71
67502;SHT30;54349;52.528;19.760;2023-07-28T15:17:28;19.93;60.09
67502;SHT30;54349;52.528;19.760;2023-07-28T15:20:12;20.30;59.42
67502;SHT30;54349;52.528;19.760;2023-07-28T15:22:40;20.30;60.64
67502;SHT30;54349;52.528;19.760;2023-07-28T15:25:09;19.80;60.90
67502;SHT30;54349;52.528;19.760;2023-07-28T15:27:44;19.37;61.73
67502;SHT30;54349;52.528;19.760;2023-07-28T15:30:15;19.03;61.14
67502;SHT30;54349;52.528;19.760;2023-07-28T15:32:44;18.69;60.80
67502;SHT30;54349;52.528;19.760;2023-07-28T16:15:41;19.89;60.80
67502;SHT30;54349;52.528;19.760;2023-07-28T16:18:13;20.26;60.58
67502;SHT30;54349;52.528;19.760;2023-07-28T16:20:42;20.17;61.11
67502;SHT30;54349;52.528;19.760;2023-07-28T16:23:21;19.70;61.43
67502;SHT30;54349;52.528;19.760;2023-07-28T16:26:05;19.26;61.65
67502;SHT30;54349;52.528;19.760;2023-07-28T16:28:33;18.94;61.02
67502;SHT30;54349;52.528;19.760;2023-07-28T16:31:05;18.61;61.10
67502;SHT30;54349;52.528;19.760;2023-07-28T19:20:29;19.27;62.76
67502;SHT30;54349;52.528;19.760;2023-07-28T19:22:58;18.86;62.94
67502;SHT30;54349;52.528;19.760;2023-07-28T19:25:43;18.51;63.54
67502;SHT30;54349;52.528;19.760;2023-07-28T19:28:12;18.25;63.82
67502;SHT30;54349;52.528;19.760;2023-07-28T19:30:42;18.04;63.98
67502;SHT30;54349;52.528;19.760;2023-07-28T19:33:17;18.14;66.59
67502;SHT30;54349;52.528;19.760;2023-07-28T23:18:01;20.31;61.09
67502;SHT30;54349;52.528;19.760;2023-07-28T23:20:30;20.54;60.65
67502;SHT30;54349;52.528;19.760;2023-07-28T23:23:00;20.72;59.98
67502;SHT30;54349;52.528;19.760;2023-07-28T23:25:46;20.24;59.48
67502;SHT30;54349;52.528;19.760;2023-07-28T23:28:14;20.02;61.12
67502;SHT30;54349;52.528;19.760;2023-07-28T23:30:42;20.26;60.97
